sensor_id;sensor_type;location;lat;lon;timestamp;temperature;humidity
20487;DHT22;10402;49.012;8.370;2023-03-01T00:02:06;1.80;60.90
20487;DHT22;10402;49.012;8.370;2023-03-01T00:04:31;1.80;60.90
20487;DHT22;10402;49.012;8.370;2023-03-01T00:06:57;1.70;60.90
20487;DHT22;10402;49.012;8.370;2023-03-01T00:09:23;1.70;61.00
20487;DHT22;10402;49.012;8.370;2023-03-01T00:11:48;1.60;60.80
20487;DHT22;10402;49.012;8.370;2023-03-01T00:14:14;1.60;61.20
20487;DHT22;10402;49.012;8.370;2023-03-01T00:16:43;1.60;61.30
20487;DHT22;10402;49.012;8.370;2023-03-01T00:19:14;1.60;61.40
20487;DHT22;10402;49.012;8.370;2023-03-01T00:21:41;1.50;61.30
20487;DHT22;10402;49.012;8.370;2023-03-01T00:24:07;1.60;61.50
20487;DHT22;10402;49.012;8.370;2023-03-01T00:26:33;1.60;61.40
20487;DHT22;10402;49.012;8.370;2023-03-01T00:28:59;1.60;61.40
20487;DHT22;10402;49.012;8.370;2023-03-01T00:31:29;1.50;61.40
20487;DHT22;10402;49.012;8.370;2023-03-01T00:33:56;1.50;61.50
20487;DHT22;10402;49.012;8.370;2023-03-01T00:36:24;1.50;61.60
20487;DHT22;10402;49.012;8.370;2023-03-01T00:38:50;1.60;61.60
20487;DHT22;10402;49.012;8.370;2023-03-01T00:41:17;1.60;61.70
20487;DHT22;10402;49.012;8.370;2023-03-01T00:43:44;1.60;61.70
20487;DHT22;10402;49.012;8.370;2023-03-01T00:46:16;1.60;61.70
20487;DHT22;10402;49.012;8.370;2023-03-01T00:48:42;1.60;61.80
20487;DHT22;10402;49.012;8.370;2023-03-01T00:51:19;1.50;61.70
20487;DHT22;10402;49.012;8.370;2023-03-01T00:53:46;1.60;61.80
20487;DHT22;10402;49.012;8.370;2023-03-01T00:56:13;1.60;61.80
20487;DHT22;10402;49.012;8.370;2023-03-01T00:58:40;1.50;61.70
20487;DHT22;10402;49.012;8.370;2023-03-01T01:01:14;1.40;61.80
20487;DHT22;10402;49.012;8.370;2023-03-01T01:03:48;1.40;62.00
20487;DHT22;10402;49.012;8.370;2023-03-01T01:06:16;1.40;62.20
20487;DHT22;10402;49.012;8.370;2023-03-01T01:08:42;1.40;62.20
20487;DHT22;10402;49.012;8.370;2023-03-01T01:11:09;1.50;62.30
20487;DHT22;10402;49.012;8.370;2023-03-01T01:13:35;1.40;62.30
20487;DHT22;10402;49.012;8.370;2023-03-01T01:16:02;1.50;62.60
20487;DHT22;10402;49.012;8.370;2023-03-01T01:18:27;1.50;62.10
20487;DHT22;10402;49.012;8.370;2023-03-01T01:20:53;1.50;62.20
20487;DHT22;10402;49.012;8.370;2023-03-01T01:23:18;1.50;62.10
20487;DHT22;10402;49.012;8.370;2023-03-01T01:25:44;1.50;62.30
20487;DHT22;10402;49.012;8.370;2023-03-01T01:28:09;1.50;62.20
20487;DHT22;10402;49.012;8.370;2023-03-01T01:30:35;1.50;62.20
20487;DHT22;10402;49.012;8.370;2023-03-01T01:33:00;1.50;62.30
20487;DHT22;10402;49.012;8.370;2023-03-01T01:35:27;1.40;62.40
20487;DHT22;10402;49.012;8.370;2023-03-01T01:37:52;1.40;62.50
20487;DHT22;10402;49.012;8.370;2023-03-01T01:40:18;1.30;62.60
20487;DHT22;10402;49.012;8.370;2023-03-01T01:42:44;1.30;62.80
20487;DHT22;10402;49.012;8.370;2023-03-01T01:47:47;1.40;62.90
20487;DHT22;10402;49.012;8.370;2023-03-01T01:50:16;1.40;62.70
20487;DHT22;10402;49.012;8.370;2023-03-01T01:52:44;1.40;62.80
20487;DHT22;10402;49.012;8.370;2023-03-01T01:55:15;1.40;62.80
20487;DHT22;10402;49.012;8.370;2023-03-01T01:57:45;1.40;63.00
20487;DHT22;10402;49.012;8.370;2023-03-01T02:00:18;1.40;63.10
20487;DHT22;10402;49.012;8.370;2023-03-01T02:02:45;1.40;63.20
20487;DHT22;10402;49.012;8.370;2023-03-01T02:07:45;1.40;63.30
20487;DHT22;10402;49.012;8.370;2023-03-01T02:10:11;1.40;63.30
20487;DHT22;10402;49.012;8.370;2023-03-01T02:12:37;1.40;63.20
20487;DHT22;10402;49.012;8.370;2023-03-01T02:15:04;1.40;63.20
20487;DHT22;10402;49.012;8.370;2023-03-01T02:17:30;1.40;63.30
20487;DHT22;10402;49.012;8.370;2023-03-01T02:20:17;1.40;63.30
20487;DHT22;10402;49.012;8.370;2023-03-01T02:22:45;1.40;63.30
20487;DHT22;10402;49.012;8.370;2023-03-01T02:30:56;1.40;63.50
20487;DHT22;10402;49.012;8.370;2023-03-01T02:33:41;1.30;63.50
20487;DHT22;10402;49.012;8.370;2023-03-01T02:36:23;1.30;63.60
20487;DHT22;10402;49.012;8.370;2023-03-01T02:38:52;1.20;63.60
20487;DHT22;10402;49.012;8.370;2023-03-01T02:41:20;1.20;63.80
20487;DHT22;10402;49.012;8.370;2023-03-01T02:43:47;1.20;64.00
20487;DHT22;10402;49.012;8.370;2023-03-01T02:46:16;1.20;63.90
20487;DHT22;10402;49.012;8.370;2023-03-01T02:48:43;1.20;63.90
20487;DHT22;10402;49.012;8.370;2023-03-01T02:51:28;1.20;64.80
20487;DHT22;10402;49.012;8.370;2023-03-01T02:56:32;1.20;64.00
20487;DHT22;10402;49.012;8.370;2023-03-01T02:58:58;1.20;64.00
20487;DHT22;10402;49.012;8.370;2023-03-01T03:01:27;1.20;64.80
20487;DHT22;10402;49.012;8.370;2023-03-01T03:04:03;1.20;64.10
20487;DHT22;10402;49.012;8.370;2023-03-01T03:06:28;1.20;64.30
20487;DHT22;10402;49.012;8.370;2023-03-01T03:08:54;1.20;64.40
20487;DHT22;10402;49.012;8.370;2023-03-01T03:11:20;1.20;64.40
20487;DHT22;10402;49.012;8.370;2023-03-01T03:13:46;1.20;64.30
20487;DHT22;10402;49.012;8.370;2023-03-01T03:16:13;1.10;64.20
20487;DHT22;10402;49.012;8.370;2023-03-01T03:18:39;1.10;64.50
20487;DHT22;10402;49.012;8.370;2023-03-01T03:21:08;1.20;64.60
20487;DHT22;10402;49.012;8.370;2023-03-01T03:23:35;1.20;64.70
20487;DHT22;10402;49.012;8.370;2023-03-01T03:26:01;1.20;64.50
20487;DHT22;10402;49.012;8.370;2023-03-01T03:28:29;1.20;64.60
20487;DHT22;10402;49.012;8.370;2023-03-01T03:30:56;1.10;64.60
20487;DHT22;10402;49.012;8.370;2023-03-01T03:33:22;1.10;64.70
20487;DHT22;10402;49.012;8.370;2023-03-01T03:35:49;1.10;64.70
20487;DHT22;10402;49.012;8.370;2023-03-01T03:38:18;1.10;64.70
20487;DHT22;10402;49.012;8.370;2023-03-01T03:40:49;1.00;64.80
20487;DHT22;10402;49.012;8.370;2023-03-01T03:43:21;1.00;64.90
20487;DHT22;10402;49.012;8.370;2023-03-01T03:45:48;0.90;64.90
20487;DHT22;10402;49.012;8.370;2023-03-01T03:48:15;0.80;65.10
20487;DHT22;10402;49.012;8.370;2023-03-01T03:50:41;0.80;65.30
20487;DHT22;10402;49.012;8.370;2023-03-01T03:53:11;0.80;65.70
20487;DHT22;10402;49.012;8.370;2023-03-01T03:55:37;0.70;65.50
20487;DHT22;10402;49.012;8.370;2023-03-01T03:58:06;0.80;65.60
20487;DHT22;10402;49.012;8.370;2023-03-01T04:00:42;0.80;65.40
20487;DHT22;10402;49.012;8.370;2023-03-01T04:03:09;0.80;64.50
20487;DHT22;10402;49.012;8.370;2023-03-01T04:05:36;0.90;65.50
20487;DHT22;10402;49.012;8.370;2023-03-01T04:08:02;0.90;66.00
20487;DHT22;10402;49.012;8.370;2023-03-01T04:10:29;0.90;65.10
20487;DHT22;10402;49.012;8.370;2023-03-01T04:12:55;0.90;65.30
20487;DHT22;10402;49.012;8.370;2023-03-01T04:15:22;0.90;65.30
20487;DHT22;10402;49.012;8.370;2023-03-01T04:17:50;0.80;65.20
20487;DHT22;10402;49.012;8.370;2023-03-01T04:20:19;0.70;65.40
20487;DHT22;10402;49.012;8.370;2023-03-01T04:23:12;0.70;65.60
20487;DHT22;10402;49.012;8.370;2023-03-01T04:25:40;0.70;65.60
20487;DHT22;10402;49.012;8.370;2023-03-01T04:28:06;0.70;65.60
20487;DHT22;10402;49.012;8.370;2023-03-01T04:30:32;0.60;65.50
20487;DHT22;10402;49.012;8.370;2023-03-01T04:33:02;0.60;65.50
20487;DHT22;10402;49.012;8.370;2023-03-01T04:35:28;0.60;66.20
20487;DHT22;10402;49.012;8.370;2023-03-01T04:37:53;0.50;65.40
20487;DHT22;10402;49.012;8.370;2023-03-01T04:40:19;0.50;65.90
20487;DHT22;10402;49.012;8.370;2023-03-01T04:42:46;0.50;65.90
20487;DHT22;10402;49.012;8.370;2023-03-01T04:45:12;0.50;66.00
20487;DHT22;10402;49.012;8.370;2023-03-01T04:47:40;0.40;66.10
20487;DHT22;10402;49.012;8.370;2023-03-01T04:50:06;0.50;66.10
20487;DHT22;10402;49.012;8.370;2023-03-01T04:52:32;0.40;66.10
20487;DHT22;10402;49.012;8.370;2023-03-01T04:54:58;0.40;66.20
20487;DHT22;10402;49.012;8.370;2023-03-01T04:57:23;0.40;66.50
20487;DHT22;10402;49.012;8.370;2023-03-01T04:59:49;0.40;66.50
20487;DHT22;10402;49.012;8.370;2023-03-01T05:02:14;0.40;66.50
20487;DHT22;10402;49.012;8.370;2023-03-01T05:04:40;0.30;66.50
20487;DHT22;10402;49.012;8.370;2023-03-01T05:07:05;0.30;66.60
20487;DHT22;10402;49.012;8.370;2023-03-01T05:09:31;0.30;66.70
20487;DHT22;10402;49.012;8.370;2023-03-01T05:11:56;0.30;66.80
20487;DHT22;10402;49.012;8.370;2023-03-01T05:14:22;0.20;66.90
20487;DHT22;10402;49.012;8.370;2023-03-01T05:16:48;0.10;66.90
20487;DHT22;10402;49.012;8.370;2023-03-01T05:19:13;0.10;67.00
20487;DHT22;10402;49.012;8.370;2023-03-01T05:21:42;0.10;67.10
20487;DHT22;10402;49.012;8.370;2023-03-01T05:24:28;0.10;67.10
20487;DHT22;10402;49.012;8.370;2023-03-01T05:26:54;0.10;67.10
20487;DHT22;10402;49.012;8.370;2023-03-01T05:29:21;0.20;67.20
20487;DHT22;10402;49.012;8.370;2023-03-01T05:31:59;0.10;67.00
20487;DHT22;10402;49.012;8.370;2023-03-01T05:34:31;0.20;67.20
20487;DHT22;10402;49.012;8.370;2023-03-01T05:36:56;0.10;67.20
20487;DHT22;10402;49.012;8.370;2023-03-01T05:39:24;0.10;67.30
20487;DHT22;10402;49.012;8.370;2023-03-01T05:41:59;0.10;67.30
20487;DHT22;10402;49.012;8.370;2023-03-01T05:44:26;0.10;67.50
20487;DHT22;10402;49.012;8.370;2023-03-01T05:46:52;0.10;67.60
20487;DHT22;10402;49.012;8.370;2023-03-01T05:49:18;0.10;67.60
20487;DHT22;10402;49.012;8.370;2023-03-01T05:51:48;0.00;67.60
20487;DHT22;10402;49.012;8.370;2023-03-01T05:54:14;0.00;67.70
20487;DHT22;10402;49.012;8.370;2023-03-01T05:56:40;0.00;67.80
20487;DHT22;10402;49.012;8.370;2023-03-01T05:59:06;0.00;67.80
20487;DHT22;10402;49.012;8.370;2023-03-01T06:01:33;0.00;67.80
20487;DHT22;10402;49.012;8.370;2023-03-01T06:03:59;-0.10;67.70
20487;DHT22;10402;49.012;8.370;2023-03-01T06:06:25;0.00;67.80
20487;DHT22;10402;49.012;8.370;2023-03-01T06:08:51;-0.10;67.70
20487;DHT22;10402;49.012;8.370;2023-03-01T06:11:17;0.00;67.90
20487;DHT22;10402;49.012;8.370;2023-03-01T06:13:43;-0.10;67.80
20487;DHT22;10402;49.012;8.370;2023-03-01T06:16:10;0.00;68.00
20487;DHT22;10402;49.012;8.370;2023-03-01T06:18:37;0.00;67.80
20487;DHT22;10402;49.012;8.370;2023-03-01T06:21:03;0.00;67.70
20487;DHT22;10402;49.012;8.370;2023-03-01T06:23:29;0.10;67.80
20487;DHT22;10402;49.012;8.370;2023-03-01T06:25:54;0.10;67.70
20487;DHT22;10402;49.012;8.370;2023-03-01T06:28:20;0.10;67.70
20487;DHT22;10402;49.012;8.370;2023-03-01T06:30:45;0.10;67.80
20487;DHT22;10402;49.012;8.370;2023-03-01T06:33:11;0.10;67.80
20487;DHT22;10402;49.012;8.370;2023-03-01T06:35:37;0.10;67.90
20487;DHT22;10402;49.012;8.370;2023-03-01T06:38:03;0.10;67.90
20487;DHT22;10402;49.012;8.370;2023-03-01T06:40:30;0.20;67.80
20487;DHT22;10402;49.012;8.370;2023-03-01T06:42:57;0.20;67.70
20487;DHT22;10402;49.012;8.370;2023-03-01T06:45:23;0.10;67.70
20487;DHT22;10402;49.012;8.370;2023-03-01T06:47:49;0.20;67.80
20487;DHT22;10402;49.012;8.370;2023-03-01T06:50:16;0.20;67.80
20487;DHT22;10402;49.012;8.370;2023-03-01T06:52:41;0.20;67.80
20487;DHT22;10402;49.012;8.370;2023-03-01T06:55:09;0.20;67.90
20487;DHT22;10402;49.012;8.370;2023-03-01T06:57:35;0.20;68.00
20487;DHT22;10402;49.012;8.370;2023-03-01T07:00:01;0.20;68.00
20487;DHT22;10402;49.012;8.370;2023-03-01T07:02:26;0.20;68.00
20487;DHT22;10402;49.012;8.370;2023-03-01T07:04:52;0.20;68.00
20487;DHT22;10402;49.012;8.370;2023-03-01T07:07:18;0.30;68.00
20487;DHT22;10402;49.012;8.370;2023-03-01T07:09:48;0.20;67.90
20487;DHT22;10402;49.012;8.370;2023-03-01T07:12:14;0.30;67.90
20487;DHT22;10402;49.012;8.370;2023-03-01T07:14:39;0.30;67.90
20487;DHT22;10402;49.012;8.370;2023-03-01T07:17:05;0.30;67.90
20487;DHT22;10402;49.012;8.370;2023-03-01T07:19:31;0.30;68.00
20487;DHT22;10402;49.012;8.370;2023-03-01T07:21:56;0.30;68.00
20487;DHT22;10402;49.012;8.370;2023-03-01T07:24:22;0.40;68.10
20487;DHT22;10402;49.012;8.370;2023-03-01T07:26:49;0.40;68.10
20487;DHT22;10402;49.012;8.370;2023-03-01T07:29:15;0.40;68.10
20487;DHT22;10402;49.012;8.370;2023-03-01T07:31:41;0.40;68.00
20487;DHT22;10402;49.012;8.370;2023-03-01T07:34:07;0.50;68.00
20487;DHT22;10402;49.012;8.370;2023-03-01T07:36:32;0.60;68.00
20487;DHT22;10402;49.012;8.370;2023-03-01T07:38:58;0.60;67.90
20487;DHT22;10402;49.012;8.370;2023-03-01T07:41:24;0.70;67.80
20487;DHT22;10402;49.012;8.370;2023-03-01T07:43:50;0.70;67.80
20487;DHT22;10402;49.012;8.370;2023-03-01T07:46:15;0.70;67.80
20487;DHT22;10402;49.012;8.370;2023-03-01T07:48:41;0.80;68.00
20487;DHT22;10402;49.012;8.370;2023-03-01T07:51:07;0.80;67.90
20487;DHT22;10402;49.012;8.370;2023-03-01T07:53:33;0.80;67.90
20487;DHT22;10402;49.012;8.370;2023-03-01T07:56:07;0.90;67.90
20487;DHT22;10402;49.012;8.370;2023-03-01T07:58:35;1.00;67.80
20487;DHT22;10402;49.012;8.370;2023-03-01T08:01:06;1.10;67.60
20487;DHT22;10402;49.012;8.370;2023-03-01T08:03:32;1.10;67.40
20487;DHT22;10402;49.012;8.370;2023-03-01T08:06:02;1.20;67.40
20487;DHT22;10402;49.012;8.370;2023-03-01T08:08:28;1.30;67.30
20487;DHT22;10402;49.012;8.370;2023-03-01T08:10:56;1.40;67.20
20487;DHT22;10402;49.012;8.370;2023-03-01T08:13:22;1.60;67.10
20487;DHT22;10402;49.012;8.370;2023-03-01T08:15:48;1.70;66.60
20487;DHT22;10402;49.012;8.370;2023-03-01T08:18:15;1.70;66.60
20487;DHT22;10402;49.012;8.370;2023-03-01T08:20:41;1.70;66.60
20487;DHT22;10402;49.012;8.370;2023-03-01T08:23:06;1.70;66.60
20487;DHT22;10402;49.012;8.370;2023-03-01T08:25:32;1.80;66.70
20487;DHT22;10402;49.012;8.370;2023-03-01T08:27:57;1.80;66.40
20487;DHT22;10402;49.012;8.370;2023-03-01T08:30:23;1.80;66.20
20487;DHT22;10402;49.012;8.370;2023-03-01T08:32:49;1.90;66.40
20487;DHT22;10402;49.012;8.370;2023-03-01T08:35:15;1.90;66.20
20487;DHT22;10402;49.012;8.370;2023-03-01T08:37:41;1.90;66.20
20487;DHT22;10402;49.012;8.370;2023-03-01T08:40:08;1.90;66.20
20487;DHT22;10402;49.012;8.370;2023-03-01T08:42:38;1.90;66.10
20487;DHT22;10402;49.012;8.370;2023-03-01T08:45:04;2.00;66.10
20487;DHT22;10402;49.012;8.370;2023-03-01T08:47:29;2.10;66.00
20487;DHT22;10402;49.012;8.370;2023-03-01T08:49:55;2.10;66.00
20487;DHT22;10402;49.012;8.370;2023-03-01T08:52:20;2.20;65.90
20487;DHT22;10402;49.012;8.370;2023-03-01T08:54:49;2.20;65.70
20487;DHT22;10402;49.012;8.370;2023-03-01T08:57:15;2.20;65.60
20487;DHT22;10402;49.012;8.370;2023-03-01T08:59:41;2.30;65.70
20487;DHT22;10402;49.012;8.370;2023-03-01T09:02:14;2.30;65.60
20487;DHT22;10402;49.012;8.370;2023-03-01T09:04:40;2.40;65.60
20487;DHT22;10402;49.012;8.370;2023-03-01T09:07:06;2.50;65.50
20487;DHT22;10402;49.012;8.370;2023-03-01T09:09:32;2.60;65.30
20487;DHT22;10402;49.012;8.370;2023-03-01T09:11:58;2.70;65.10
20487;DHT22;10402;49.012;8.370;2023-03-01T09:14:23;2.60;64.90
20487;DHT22;10402;49.012;8.370;2023-03-01T09:16:49;2.70;65.00
20487;DHT22;10402;49.012;8.370;2023-03-01T09:19:14;2.70;65.00
20487;DHT22;10402;49.012;8.370;2023-03-01T09:21:40;2.80;65.00
20487;DHT22;10402;49.012;8.370;2023-03-01T09:24:13;2.90;65.00
20487;DHT22;10402;49.012;8.370;2023-03-01T09:26:39;2.90;64.90
20487;DHT22;10402;49.012;8.370;2023-03-01T09:29:05;3.00;64.80
20487;DHT22;10402;49.012;8.370;2023-03-01T09:31:30;3.10;64.80
20487;DHT22;10402;49.012;8.370;2023-03-01T09:33:56;3.10;64.70
20487;DHT22;10402;49.012;8.370;2023-03-01T09:36:23;3.10;64.30
20487;DHT22;10402;49.012;8.370;2023-03-01T09:38:51;3.10;64.10
20487;DHT22;10402;49.012;8.370;2023-03-01T09:43:50;3.30;64.30
20487;DHT22;10402;49.012;8.370;2023-03-01T09:46:20;3.30;64.30
20487;DHT22;10402;49.012;8.370;2023-03-01T09:48:58;3.40;64.30
20487;DHT22;10402;49.012;8.370;2023-03-01T09:51:30;3.40;64.00
20487;DHT22;10402;49.012;8.370;2023-03-01T09:53:56;3.50;63.80
20487;DHT22;10402;49.012;8.370;2023-03-01T09:56:33;3.50;63.50
20487;DHT22;10402;49.012;8.370;2023-03-01T09:59:13;3.50;63.50
20487;DHT22;10402;49.012;8.370;2023-03-01T10:01:49;3.50;63.30
20487;DHT22;10402;49.012;8.370;2023-03-01T10:07:17;3.50;63.00
20487;DHT22;10402;49.012;8.370;2023-03-01T10:09:47;3.60;63.00
20487;DHT22;10402;49.012;8.370;2023-03-01T10:12:16;3.60;62.70
20487;DHT22;10402;49.012;8.370;2023-03-01T10:17:33;3.80;63.00
20487;DHT22;10402;49.012;8.370;2023-03-01T10:20:19;3.80;62.80
20487;DHT22;10402;49.012;8.370;2023-03-01T10:22:45;3.90;62.80
20487;DHT22;10402;49.012;8.370;2023-03-01T10:28:31;4.10;62.80
20487;DHT22;10402;49.012;8.370;2023-03-01T10:31:01;4.10;62.50
20487;DHT22;10402;49.012;8.370;2023-03-01T10:33:30;4.20;62.20
20487;DHT22;10402;49.012;8.370;2023-03-01T10:35:56;4.20;62.20
20487;DHT22;10402;49.012;8.370;2023-03-01T10:38:22;4.20;62.00
20487;DHT22;10402;49.012;8.370;2023-03-01T10:43:23;4.40;62.10
20487;DHT22;10402;49.012;8.370;2023-03-01T10:45:49;4.50;62.10
20487;DHT22;10402;49.012;8.370;2023-03-01T10:48:25;4.50;61.90
20487;DHT22;10402;49.012;8.370;2023-03-01T10:53:42;4.70;61.70
20487;DHT22;10402;49.012;8.370;2023-03-01T10:56:13;4.70;61.10
20487;DHT22;10402;49.012;8.370;2023-03-01T11:01:28;4.70;61.10
20487;DHT22;10402;49.012;8.370;2023-03-01T11:06:33;4.90;61.10
20487;DHT22;10402;49.012;8.370;2023-03-01T11:11:39;5.00;61.90
20487;DHT22;10402;49.012;8.370;2023-03-01T11:14:21;5.10;60.90
20487;DHT22;10402;49.012;8.370;2023-03-01T11:16:49;5.20;61.00
20487;DHT22;10402;49.012;8.370;2023-03-01T11:19:25;5.20;60.90
20487;DHT22;10402;49.012;8.370;2023-03-01T11:22:01;5.30;60.80
20487;DHT22;10402;49.012;8.370;2023-03-01T11:24:34;5.30;60.60
20487;DHT22;10402;49.012;8.370;2023-03-01T11:27:04;5.30;60.30
20487;DHT22;10402;49.012;8.370;2023-03-01T11:29:41;5.30;60.40
20487;DHT22;10402;49.012;8.370;2023-03-01T11:32:11;5.40;60.60
20487;DHT22;10402;49.012;8.370;2023-03-01T11:34:42;5.40;60.30
20487;DHT22;10402;49.012;8.370;2023-03-01T11:39:55;5.50;60.30
20487;DHT22;10402;49.012;8.370;2023-03-01T11:42:44;5.60;60.20
20487;DHT22;10402;49.012;8.370;2023-03-01T11:45:12;5.60;60.00
20487;DHT22;10402;49.012;8.370;2023-03-01T11:48:07;5.60;59.80
20487;DHT22;10402;49.012;8.370;2023-03-01T11:50:43;5.60;59.60
20487;DHT22;10402;49.012;8.370;2023-03-01T12:03:52;5.80;59.20
20487;DHT22;10402;49.012;8.370;2023-03-01T12:20:15;6.00;59.40
20487;DHT22;10402;49.012;8.370;2023-03-01T12:25:49;6.20;59.10
20487;DHT22;10402;49.012;8.370;2023-03-01T12:31:12;6.30;59.00
20487;DHT22;10402;49.012;8.370;2023-03-01T12:36:35;6.30;58.70
20487;DHT22;10402;49.012;8.370;2023-03-01T12:49:59;6.50;58.50
20487;DHT22;10402;49.012;8.370;2023-03-01T12:52:56;6.50;58.50
20487;DHT22;10402;49.012;8.370;2023-03-01T12:55:29;6.60;58.50
20487;DHT22;10402;49.012;8.370;2023-03-01T12:58:20;6.60;58.20
20487;DHT22;10402;49.012;8.370;2023-03-01T13:05:52;6.70;58.30
20487;DHT22;10402;49.012;8.370;2023-03-01T13:08:49;6.70;58.10
20487;DHT22;10402;49.012;8.370;2023-03-01T13:11:20;6.70;58.10
20487;DHT22;10402;49.012;8.370;2023-03-01T13:13:47;6.80;58.10
20487;DHT22;10402;49.012;8.370;2023-03-01T13:19:15;6.90;57.90
20487;DHT22;10402;49.012;8.370;2023-03-01T13:21:41;6.90;57.70
20487;DHT22;10402;49.012;8.370;2023-03-01T13:24:33;7.00;57.80
20487;DHT22;10402;49.012;8.370;2023-03-01T13:29:51;7.10;57.80
20487;DHT22;10402;49.012;8.370;2023-03-01T13:32:31;7.10;57.20
20487;DHT22;10402;49.012;8.370;2023-03-01T13:35:02;7.10;57.20
20487;DHT22;10402;49.012;8.370;2023-03-01T13:37:39;7.20;57.10
20487;DHT22;10402;49.012;8.370;2023-03-01T13:42:52;7.20;57.30
20487;DHT22;10402;49.012;8.370;2023-03-01T13:45:31;7.30;57.30
20487;DHT22;10402;49.012;8.370;2023-03-01T13:48:02;7.30;57.00
20487;DHT22;10402;49.012;8.370;2023-03-01T13:50:37;7.40;57.10
20487;DHT22;10402;49.012;8.370;2023-03-01T13:53:06;7.40;57.00
20487;DHT22;10402;49.012;8.370;2023-03-01T13:55:42;7.40;57.30
20487;DHT22;10402;49.012;8.370;2023-03-01T13:58:21;7.40;56.70
20487;DHT22;10402;49.012;8.370;2023-03-01T14:00:47;7.40;56.60
20487;DHT22;10402;49.012;8.370;2023-03-01T14:03:17;7.50;56.80
20487;DHT22;10402;49.012;8.370;2023-03-01T14:06:04;7.50;56.50
20487;DHT22;10402;49.012;8.370;2023-03-01T14:08:35;7.50;56.30
20487;DHT22;10402;49.012;8.370;2023-03-01T14:21:23;7.60;56.00
20487;DHT22;10402;49.012;8.370;2023-03-01T14:23:50;7.60;56.00
20487;DHT22;10402;49.012;8.370;2023-03-01T14:26:21;7.70;56.00
20487;DHT22;10402;49.012;8.370;2023-03-01T14:28:48;7.70;56.10
20487;DHT22;10402;49.012;8.370;2023-03-01T14:31:43;7.70;55.90
20487;DHT22;10402;49.012;8.370;2023-03-01T14:34:19;7.80;56.10
20487;DHT22;10402;49.012;8.370;2023-03-01T14:36:45;7.80;56.10
20487;DHT22;10402;49.012;8.370;2023-03-01T14:39:24;7.80;56.20
20487;DHT22;10402;49.012;8.370;2023-03-01T14:41:52;7.80;56.20
20487;DHT22;10402;49.012;8.370;2023-03-01T14:44:23;7.80;56.10
20487;DHT22;10402;49.012;8.370;2023-03-01T14:46:53;7.80;56.20
20487;DHT22;10402;49.012;8.370;2023-03-01T14:49:29;7.80;56.20
20487;DHT22;10402;49.012;8.370;2023-03-01T14:52:05;7.80;56.20
20487;DHT22;10402;49.012;8.370;2023-03-01T14:54:51;7.80;56.10
20487;DHT22;10402;49.012;8.370;2023-03-01T14:57:20;7.80;56.10
20487;DHT22;10402;49.012;8.370;2023-03-01T14:59:47;7.80;56.20
20487;DHT22;10402;49.012;8.370;2023-03-01T15:02:17;7.80;56.10
20487;DHT22;10402;49.012;8.370;2023-03-01T15:04:50;7.90;56.20
20487;DHT22;10402;49.012;8.370;2023-03-01T15:07:17;7.90;56.20
20487;DHT22;10402;49.012;8.370;2023-03-01T15:09:43;7.90;56.20
20487;DHT22;10402;49.012;8.370;2023-03-01T15:12:44;7.90;56.20
20487;DHT22;10402;49.012;8.370;2023-03-01T15:17:52;7.90;56.00
20487;DHT22;10402;49.012;8.370;2023-03-01T15:20:20;7.90;55.70
20487;DHT22;10402;49.012;8.370;2023-03-01T15:22:51;8.00;55.80
20487;DHT22;10402;49.012;8.370;2023-03-01T15:25:18;7.90;55.80
20487;DHT22;10402;49.012;8.370;2023-03-01T15:27:49;7.90;55.70
20487;DHT22;10402;49.012;8.370;2023-03-01T15:30:24;8.00;55.70
20487;DHT22;10402;49.012;8.370;2023-03-01T15:33:27;7.90;55.60
20487;DHT22;10402;49.012;8.370;2023-03-01T15:35:56;8.00;55.80
20487;DHT22;10402;49.012;8.370;2023-03-01T15:38:34;7.90;55.50
20487;DHT22;10402;49.012;8.370;2023-03-01T15:41:03;7.90;55.30
20487;DHT22;10402;49.012;8.370;2023-03-01T15:43:45;7.90;55.50
20487;DHT22;10402;49.012;8.370;2023-03-01T15:46:21;7.90;55.50
20487;DHT22;10402;49.012;8.370;2023-03-01T15:48:50;7.90;55.50
20487;DHT22;10402;49.012;8.370;2023-03-01T15:51:21;7.90;55.30
20487;DHT22;10402;49.012;8.370;2023-03-01T15:53:51;7.90;55.30
20487;DHT22;10402;49.012;8.370;2023-03-01T15:56:18;7.80;55.30
20487;DHT22;10402;49.012;8.370;2023-03-01T15:58:43;7.90;55.50
20487;DHT22;10402;49.012;8.370;2023-03-01T16:01:13;7.90;55.40
20487;DHT22;10402;49.012;8.370;2023-03-01T16:03:39;7.90;55.20
20487;DHT22;10402;49.012;8.370;2023-03-01T16:06:05;7.80;55.20
20487;DHT22;10402;49.012;8.370;2023-03-01T16:08:30;7.80;55.30
20487;DHT22;10402;49.012;8.370;2023-03-01T16:10:56;7.80;55.30
20487;DHT22;10402;49.012;8.370;2023-03-01T16:13:21;7.80;55.40
20487;DHT22;10402;49.012;8.370;2023-03-01T16:15:47;7.80;55.50
20487;DHT22;10402;49.012;8.370;2023-03-01T16:18:13;7.80;55.70
20487;DHT22;10402;49.012;8.370;2023-03-01T16:20:39;7.80;55.70
20487;DHT22;10402;49.012;8.370;2023-03-01T16:23:07;7.80;55.60
20487;DHT22;10402;49.012;8.370;2023-03-01T16:25:34;7.80;55.80
20487;DHT22;10402;49.012;8.370;2023-03-01T16:28:00;7.80;55.80
20487;DHT22;10402;49.012;8.370;2023-03-01T16:30:30;7.80;55.50
20487;DHT22;10402;49.012;8.370;2023-03-01T16:32:55;7.80;55.60
20487;DHT22;10402;49.012;8.370;2023-03-01T16:35:21;7.80;55.60
20487;DHT22;10402;49.012;8.370;2023-03-01T16:37:48;7.70;55.40
20487;DHT22;10402;49.012;8.370;2023-03-01T16:40:25;7.70;55.50
20487;DHT22;10402;49.012;8.370;2023-03-01T16:42:52;7.70;55.40
20487;DHT22;10402;49.012;8.370;2023-03-01T16:45:19;7.60;55.40
20487;DHT22;10402;49.012;8.370;2023-03-01T16:47:45;7.60;55.60
20487;DHT22;10402;49.012;8.370;2023-03-01T16:50:11;7.60;55.60
20487;DHT22;10402;49.012;8.370;2023-03-01T16:52:37;7.60;55.70
20487;DHT22;10402;49.012;8.370;2023-03-01T16:55:04;7.50;55.60
20487;DHT22;10402;49.012;8.370;2023-03-01T16:57:30;7.50;55.70
20487;DHT22;10402;49.012;8.370;2023-03-01T16:59:56;7.50;55.60
20487;DHT22;10402;49.012;8.370;2023-03-01T17:02:22;7.40;55.50
20487;DHT22;10402;49.012;8.370;2023-03-01T17:04:54;7.40;55.80
20487;DHT22;10402;49.012;8.370;2023-03-01T17:07:20;7.30;55.70
20487;DHT22;10402;49.012;8.370;2023-03-01T17:09:46;7.30;55.70
20487;DHT22;10402;49.012;8.370;2023-03-01T17:12:12;7.30;55.80
20487;DHT22;10402;49.012;8.370;2023-03-01T17:14:38;7.30;55.90
20487;DHT22;10402;49.012;8.370;2023-03-01T17:17:07;7.30;55.90
20487;DHT22;10402;49.012;8.370;2023-03-01T17:19:32;7.20;55.80
20487;DHT22;10402;49.012;8.370;2023-03-01T17:22:03;7.20;55.80
20487;DHT22;10402;49.012;8.370;2023-03-01T17:24:32;7.20;55.80
20487;DHT22;10402;49.012;8.370;2023-03-01T17:26:58;7.20;55.90
20487;DHT22;10402;49.012;8.370;2023-03-01T17:29:24;7.10;55.80
20487;DHT22;10402;49.012;8.370;2023-03-01T17:31:49;7.10;55.90
20487;DHT22;10402;49.012;8.370;2023-03-01T17:34:15;7.00;55.80
20487;DHT22;10402;49.012;8.370;2023-03-01T17:36:40;7.00;55.90
20487;DHT22;10402;49.012;8.370;2023-03-01T17:39:09;7.00;56.00
20487;DHT22;10402;49.012;8.370;2023-03-01T17:41:35;6.90;56.00
20487;DHT22;10402;49.012;8.370;2023-03-01T17:44:01;6.90;56.70
20487;DHT22;10402;49.012;8.370;2023-03-01T17:46:26;6.90;56.10
20487;DHT22;10402;49.012;8.370;2023-03-01T17:48:52;6.90;56.10